Lambs Grove, Iowa
Current Conditions -  °F | °C
As of 2:35 PM on Sunday 21 Dec 2014 (Local Time) from KTNU Reporting Station
Haze Haze  
Wind Chill: 32°   Ceiling: 500
Heat Index: 39°   Visibility: 2.5mi
Dew Point: 39°   Wind: 10mph
Humidity: 100%   Direction: 180°S
Pressure: 29.85"   Gusts: NA
Location:  41.7317°N, 93.0122°W
Report Text: KTNU 212035Z AUTO 18009KT 2 1/2SM BR OVC005 04/04 A2985 RMK AO2
Loading
Personal Weather Stations






























Interactive Weather Map New forecast layout! Learn more

10-Day Weather Forecast

Advertisements
Track Severe Weather on mobile